Time;durP1;ratioP1;P1;durP2;ratioP2;P2;SDS_P1;SDS_P2;PMS_P1;PMS_P2;Temp;Humidity;BMP_temperature;BMP_pressure;BME280_temperature;BME280_humidity;BME280_pressure;Samples;Min_cycle;Max_cycle;Signal;HPM_P1;HPM_P2
2022/03/11 00:04:14;;;;;;;28.33;12.33;;;;;;;-1.86;57.69;102467.00;3464922;83;99184;-94
2022/03/11 00:09:14;;;;;;;25.37;10.37;;;;;;;-1.90;57.63;102465.05;3484760;82;99240;-89
2022/03/11 00:14:16;;;;;;;29.37;13.20;;;;;;;-1.94;58.03;102471.98;3459173;83;98725;-93
2022/03/11 00:19:17;;;;;;;28.40;10.90;;;;;;;-1.97;57.89;102480.04;3484783;84;98983;-90
2022/03/11 00:24:18;;;;;;;25.77;10.83;;;;;;;-2.00;58.47;102483.24;3473944;83;99048;-91
2022/03/11 00:29:20;;;;;;;37.80;13.80;;;;;;;-2.03;58.68;102476.17;3467711;84;99302;-90
2022/03/11 00:34:21;;;;;;;27.40;13.00;;;;;;;-2.06;58.31;102476.64;3475834;83;99576;-89
2022/03/11 00:39:22;;;;;;;28.05;10.75;;;;;;;-2.11;58.75;102461.20;3476246;82;99533;-90
2022/03/11 00:44:39;;;;;;;27.50;11.57;;;;;;;-2.14;58.81;102458.98;3464309;84;99018;-91
2022/03/11 00:49:41;;;;;;;28.70;11.33;;;;;;;-2.18;59.05;102464.56;3472473;84;99397;-90
2022/03/11 00:54:53;;;;;;;32.37;11.53;;;;;;;-2.22;59.22;102468.00;3453915;84;98852;-90
2022/03/11 00:59:54;;;;;;;27.80;12.40;;;;;;;-2.34;59.18;102461.34;3479636;84;99245;-87
2022/03/11 01:04:55;;;;;;;27.47;11.53;;;;;;;-2.31;59.67;102470.27;3443053;84;99544;-87
2022/03/11 01:09:56;;;;;;;25.00;11.73;;;;;;;-2.34;59.54;102467.25;3567597;81;99116;-88
2022/03/11 01:14:57;;;;;;;31.80;13.20;;;;;;;-2.36;59.83;102463.44;3569629;81;33200;-87
2022/03/11 01:19:58;;;;;;;30.90;13.40;;;;;;;-2.40;59.62;102455.53;3556938;79;98897;-87
2022/03/11 01:24:59;;;;;;;24.50;11.20;;;;;;;-2.44;59.84;102456.27;3569441;82;98922;-86
2022/03/11 01:30:00;;;;;;;30.13;11.73;;;;;;;-2.46;59.87;102458.41;3549501;81;99173;-86
2022/03/11 01:35:01;;;;;;;29.87;12.47;;;;;;;-2.48;60.40;102457.81;3552040;82;99282;-86
2022/03/11 01:40:04;;;;;;;30.83;13.33;;;;;;;-2.53;60.59;102453.15;3556745;81;99140;-86
2022/03/11 01:45:06;;;;;;;28.87;13.20;;;;;;;-2.56;60.57;102450.95;3571377;82;99213;-86
2022/03/11 01:50:07;;;;;;;28.27;12.33;;;;;;;-2.62;60.57;102439.77;3558381;82;100379;-86
2022/03/11 01:55:08;;;;;;;28.73;12.27;;;;;;;-2.65;60.71;102438.91;3564206;81;99123;-85
2022/03/11 02:00:10;;;;;;;29.53;12.60;;;;;;;-2.68;61.19;102447.47;3575219;80;99721;-86
2022/03/11 02:05:14;;;;;;;27.67;12.47;;;;;;;-2.72;60.76;102450.89;3587954;82;99224;-85
2022/03/11 02:10:14;;;;;;;29.67;12.47;;;;;;;-2.77;61.03;102447.58;3588236;81;99273;-85
2022/03/11 02:15:15;;;;;;;31.23;13.43;;;;;;;-2.78;61.28;102454.55;3579715;80;99195;-85
2022/03/11 02:20:17;;;;;;;38.97;16.47;;;;;;;-2.82;61.26;102450.17;3582406;81;98804;-85
2022/03/11 02:25:18;;;;;;;31.87;15.10;;;;;;;-2.85;61.32;102449.29;3580761;82;99054;-85
2022/03/11 02:30:21;;;;;;;30.17;12.70;;;;;;;-2.89;61.49;102450.81;3563999;81;99693;-85
2022/03/11 02:35:22;;;;;;;30.83;11.83;;;;;;;-2.92;61.21;102455.87;3573252;81;99216;-85
2022/03/11 02:40:23;;;;;;;31.75;13.85;;;;;;;-2.95;61.35;102450.42;3596494;82;99126;-84
2022/03/11 02:45:24;;;;;;;35.00;13.67;;;;;;;-2.98;61.22;102446.05;3609640;81;99226;-85
2022/03/11 02:50:25;;;;;;;29.70;12.33;;;;;;;-3.03;61.26;102449.98;3580784;80;99694;-84
2022/03/11 02:55:26;;;;;;;30.83;11.90;;;;;;;-3.06;61.25;102445.89;3602110;81;99072;-85
2022/03/11 03:00:27;;;;;;;27.40;11.90;;;;;;;-3.06;61.70;102454.52;3583592;80;99103;-85
2022/03/11 03:05:28;;;;;;;26.80;11.87;;;;;;;-3.08;61.67;102459.30;3583997;80;99288;-84
2022/03/11 03:10:29;;;;;;;34.00;12.40;;;;;;;-3.09;61.87;102466.58;3581728;81;99251;-85
2022/03/11 03:15:32;;;;;;;35.87;12.80;;;;;;;-3.11;61.91;102462.48;3577992;80;99678;-85
2022/03/11 03:20:32;;;;;;;29.13;13.83;;;;;;;-3.12;61.93;102460.86;3545523;82;99240;-85
2022/03/11 03:25:34;;;;;;;34.47;14.43;;;;;;;-3.18;62.24;102460.46;3589198;82;99084;-84
2022/03/11 03:30:35;;;;;;;34.73;13.53;;;;;;;-3.21;62.41;102464.96;3565237;78;99453;-84
2022/03/11 03:35:36;;;;;;;34.80;13.15;;;;;;;-3.24;62.57;102468.11;3575049;82;99241;-85
2022/03/11 03:40:37;;;;;;;32.53;12.23;;;;;;;-3.27;62.84;102467.25;3559008;80;99205;-85
2022/03/11 03:45:39;;;;;;;33.43;13.73;;;;;;;-3.30;62.88;102459.12;3583240;81;99123;-86
2022/03/11 03:50:40;;;;;;;30.10;12.83;;;;;;;-3.33;63.28;102462.81;3563383;81;99186;-85
2022/03/11 03:55:41;;;;;;;35.77;13.40;;;;;;;-3.36;63.34;102457.89;3582592;82;99066;-86
2022/03/11 04:00:42;;;;;;;32.97;13.67;;;;;;;-3.38;63.57;102457.32;3567781;80;99080;-85
2022/03/11 04:05:43;;;;;;;31.90;12.50;;;;;;;-3.42;63.90;102454.80;3572560;80;99664;-85
2022/03/11 04:10:44;;;;;;;35.70;13.63;;;;;;;-3.46;63.97;102455.80;3578399;80;99600;-85
2022/03/11 04:15:45;;;;;;;30.43;12.97;;;;;;;-3.50;64.09;102468.08;3587916;80;99315;-85
2022/03/11 04:20:45;;;;;;;27.23;11.53;;;;;;;-3.55;64.12;102461.78;3542306;82;99001;-86
2022/03/11 04:25:46;;;;;;;26.33;10.17;;;;;;;-3.62;64.34;102459.71;3565371;82;99254;-86
2022/03/11 04:30:47;;;;;;;29.37;12.37;;;;;;;-3.66;64.70;102460.71;3561469;81;99232;-85
2022/03/11 04:35:48;;;;;;;28.10;12.50;;;;;;;-3.73;64.86;102465.91;3579815;82;99238;-85
2022/03/11 04:40:49;;;;;;;27.33;12.27;;;;;;;-3.79;65.10;102466.84;3571617;82;99719;-85
2022/03/11 04:45:50;;;;;;;30.93;12.87;;;;;;;-3.84;65.66;102470.24;3576879;81;99142;-84
2022/03/11 04:50:51;;;;;;;25.47;11.20;;;;;;;-3.90;65.94;102478.41;3566494;81;99393;-84
2022/03/11 04:55:52;;;;;;;33.20;14.30;;;;;;;-3.95;66.37;102470.22;3581386;82;99153;-85
2022/03/11 05:00:53;;;;;;;37.23;14.47;;;;;;;-4.01;66.28;102467.11;3573290;80;99432;-85
2022/03/11 05:05:53;;;;;;;32.93;13.40;;;;;;;-4.05;66.11;102469.45;3565024;82;99547;-84
2022/03/11 05:10:54;;;;;;;36.07;13.73;;;;;;;-4.08;66.41;102467.23;3585750;79;99150;-85
2022/03/11 05:15:55;;;;;;;28.13;12.10;;;;;;;-4.10;66.57;102467.17;3580510;80;99322;-86
2022/03/11 05:20:56;;;;;;;30.93;14.40;;;;;;;-4.13;66.25;102473.00;3566334;81;99125;-84
2022/03/11 05:25:57;;;;;;;28.43;11.67;;;;;;;-4.17;66.21;102471.30;3590168;82;99029;-86
2022/03/11 05:30:58;;;;;;;26.33;11.30;;;;;;;-4.18;66.10;102469.66;3583764;80;99495;-85
2022/03/11 05:35:59;;;;;;;33.60;13.67;;;;;;;-4.19;65.94;102469.89;3575965;82;99253;-85
2022/03/11 05:41:00;;;;;;;32.03;12.20;;;;;;;-4.19;65.85;102479.30;3585301;79;99509;-84
2022/03/11 05:46:04;;;;;;;30.20;12.00;;;;;;;-4.16;65.58;102471.59;3571947;81;98431;-86
2022/03/11 05:51:05;;;;;;;27.75;10.98;;;;;;;-4.14;65.40;102477.55;3580452;81;98947;-84
2022/03/11 05:56:06;;;;;;;23.60;10.47;;;;;;;-4.10;65.04;102470.66;3586913;80;98900;-85
2022/03/11 06:01:07;;;;;;;25.57;10.67;;;;;;;-4.03;64.67;102486.70;3558088;79;99051;-84
2022/03/11 06:06:08;;;;;;;27.37;11.40;;;;;;;-3.98;64.13;102491.67;3570355;81;99243;-85
2022/03/11 06:11:09;;;;;;;29.03;12.27;;;;;;;-3.90;63.79;102488.66;3582261;79;99246;-85
2022/03/11 06:16:10;;;;;;;29.10;10.00;;;;;;;-3.82;63.28;102488.84;3563913;80;99277;-85
2022/03/11 06:21:11;;;;;;;30.37;12.13;;;;;;;-3.73;62.56;102499.55;3581898;81;99192;-85
2022/03/11 06:26:12;;;;;;;31.53;11.50;;;;;;;-3.63;62.11;102500.63;3568669;81;32458;-84
2022/03/11 06:31:13;;;;;;;28.67;10.90;;;;;;;-3.52;61.66;102499.80;3552517;80;99540;-83
2022/03/11 06:36:14;;;;;;;27.50;10.93;;;;;;;-3.40;61.17;102502.48;3591362;81;98340;-85
2022/03/11 06:41:17;;;;;;;36.60;11.30;;;;;;;-3.31;60.43;102499.22;3571129;80;99551;-85
2022/03/11 06:46:18;;;;;;;21.63;9.77;;;;;;;-3.21;60.76;102498.11;3580160;82;99265;-85
2022/03/11 06:51:30;;;;;;;25.50;9.77;;;;;;;-3.09;60.30;102507.50;3572805;80;99076;-84
2022/03/11 06:56:23;;;;;;;28.10;10.17;;;;;;;-2.97;59.76;102510.98;3557271;81;27193;-85
2022/03/11 07:01:25;;;;;;;28.63;12.03;;;;;;;-2.84;59.26;102507.50;3555543;82;98831;-85
2022/03/11 07:06:26;;;;;;;35.40;11.40;;;;;;;-2.72;59.11;102512.36;3574286;79;99239;-85
2022/03/11 07:11:27;;;;;;;38.93;12.03;;;;;;;-2.62;58.67;102523.31;3567470;82;99271;-87
2022/03/11 07:16:28;;;;;;;27.17;9.27;;;;;;;-2.51;58.32;102515.72;3585938;80;99202;-88
2022/03/11 07:21:29;;;;;;;33.70;13.58;;;;;;;-2.33;57.72;102524.16;3583966;82;99159;-83
2022/03/11 07:26:30;;;;;;;31.17;13.10;;;;;;;-2.19;57.20;102505.28;3593498;82;32702;-85
2022/03/11 07:31:31;;;;;;;23.43;10.30;;;;;;;-2.04;56.52;102504.19;3570835;81;99233;-89
2022/03/11 07:36:34;;;;;;;22.37;8.67;;;;;;;-1.88;55.91;102507.44;3567913;81;99272;-84
2022/03/11 07:41:35;;;;;;;21.13;10.30;;;;;;;-1.78;56.00;102507.61;3578754;81;99183;-88
2022/03/11 07:46:36;;;;;;;19.67;8.30;;;;;;;-1.68;55.02;102504.56;3586000;81;99174;-86
2022/03/11 07:51:37;;;;;;;27.70;10.30;;;;;;;-1.54;54.54;102488.30;3577148;82;99037;-88
2022/03/11 07:56:38;;;;;;;20.77;7.90;;;;;;;-1.38;54.37;102495.56;3593923;80;32485;-88
2022/03/11 08:01:39;;;;;;;19.73;8.23;;;;;;;-1.27;53.95;102493.30;3567706;80;98999;-87
2022/03/11 08:06:41;;;;;;;18.87;8.13;;;;;;;-1.13;53.64;102491.89;3568916;81;99399;-86
2022/03/11 08:11:41;;;;;;;22.95;7.50;;;;;;;-0.94;52.41;102496.46;3554154;81;98897;-89
2022/03/11 08:16:42;;;;;;;17.00;7.73;;;;;;;-0.77;51.53;102490.45;3567708;80;98748;-89
2022/03/11 08:21:44;;;;;;;21.33;9.43;;;;;;;-0.58;51.58;102495.29;3562336;79;98829;-91
2022/03/11 08:26:47;;;;;;;27.13;9.57;;;;;;;-0.38;51.22;102486.58;3573303;81;32676;-93
2022/03/11 08:31:48;;;;;;;22.77;9.53;;;;;;;-0.17;51.18;102488.42;3561923;81;99322;-96
2022/03/11 08:36:49;;;;;;;21.47;6.77;;;;;;;0.02;50.06;102485.09;3559314;80;99143;-92
2022/03/11 08:41:51;;;;;;;16.63;7.40;;;;;;;0.25;48.37;102484.73;3561526;80;98727;-89
2022/03/11 08:46:52;;;;;;;15.53;6.37;;;;;;;0.42;47.92;102485.41;3568532;81;98767;-90
2022/03/11 08:51:55;;;;;;;17.43;6.73;;;;;;;0.65;47.29;102488.56;3562833;80;98715;-89
2022/03/11 08:56:55;;;;;;;16.87;7.73;;;;;;;0.90;47.25;102483.83;3567728;81;32542;-93
2022/03/11 09:01:56;;;;;;;15.87;6.63;;;;;;;1.19;47.11;102492.66;3569772;80;98795;-91
2022/03/11 09:06:57;;;;;;;17.87;7.70;;;;;;;1.55;47.42;102497.14;3571801;81;98597;-92
2022/03/11 09:12:00;;;;;;;16.57;8.00;;;;;;;2.07;47.97;102482.04;3561212;81;98691;-89
2022/03/11 09:17:01;;;;;;;19.40;7.97;;;;;;;2.77;47.29;102475.16;3558924;81;98616;-89
2022/03/11 09:22:03;;;;;;;18.80;7.60;;;;;;;3.45;46.66;102473.02;3547251;81;98817;-90
2022/03/11 09:27:04;;;;;;;17.67;8.40;;;;;;;4.07;45.94;102469.08;3561677;81;32521;-94
2022/03/11 09:32:07;;;;;;;29.63;15.10;;;;;;;4.90;45.66;102471.30;3557577;81;98468;-91
2022/03/11 09:37:08;;;;;;;19.13;7.80;;;;;;;5.50;45.83;102466.45;3553337;80;98812;-88
2022/03/11 09:42:10;;;;;;;15.32;6.33;;;;;;;6.45;44.71;102458.72;3531852;80;98815;-89
2022/03/11 09:47:12;;;;;;;17.73;7.47;;;;;;;6.63;40.96;102454.56;3573324;78;98663;-91
2022/03/11 09:52:15;;;;;;;18.60;8.05;;;;;;;6.39;40.86;102448.41;3539557;80;98764;-88
2022/03/11 09:57:22;;;;;;;21.13;8.33;;;;;;;6.19;38.84;102452.88;3564005;82;99077;-87
2022/03/11 10:02:26;;;;;;;17.00;8.00;;;;;;;6.73;39.69;102447.53;3576574;82;98517;-95
2022/03/11 10:07:32;;;;;;;15.40;7.78;;;;;;;6.90;39.22;102453.23;3554400;80;98415;-87
2022/03/11 10:12:37;;;;;;;19.20;7.80;;;;;;;7.43;39.74;102448.84;3585841;80;98482;-89
2022/03/11 10:17:44;;;;;;;19.32;8.30;;;;;;;7.97;39.09;102455.52;3586653;79;98712;-91
2022/03/11 10:22:45;;;;;;;14.45;7.62;;;;;;;8.00;37.11;102452.17;3573248;80;99132;-89
2022/03/11 10:28:07;;;;;;;17.00;7.42;;;;;;;7.87;36.71;102454.41;3577836;80;98694;-91
2022/03/11 10:33:14;;;;;;;15.93;7.47;;;;;;;8.04;37.41;102446.87;3572505;81;98567;-91
2022/03/11 10:38:20;;;;;;;15.72;7.08;;;;;;;8.07;34.57;102458.02;3583414;80;98361;-91
2022/03/11 10:43:26;;;;;;;15.03;7.25;;;;;;;8.00;34.39;102453.55;3584036;81;98400;-91
2022/03/11 10:48:54;;;;;;;15.80;6.47;;;;;;;7.82;33.69;102446.30;3590107;81;98746;-89
2022/03/11 10:53:57;;;;;;;28.52;9.25;;;;;;;8.24;35.13;102450.53;3589685;80;98281;-88
2022/03/11 10:58:58;;;;;;;21.57;7.40;;;;;;;8.63;33.66;102443.74;3583615;81;98645;-87
2022/03/11 11:04:01;;;;;;;38.30;9.40;;;;;;;8.72;34.09;102435.00;3570861;80;98845;-91
2022/03/11 11:09:05;;;;;;;14.23;6.08;;;;;;;8.60;33.74;102436.95;3594789;80;35523;-87
2022/03/11 11:14:08;;;;;;;14.83;6.90;;;;;;;8.08;32.64;102423.98;3590671;81;98549;-88
2022/03/11 11:19:16;;;;;;;15.13;5.92;;;;;;;7.90;32.05;102423.62;3578479;81;98719;-90
2022/03/11 11:24:24;;;;;;;21.40;6.62;;;;;;;8.02;32.56;102417.02;3590082;81;99042;-88
2022/03/11 11:29:40;;;;;;;11.55;5.25;;;;;;;8.16;30.99;102412.28;3594231;82;98784;-91
2022/03/11 11:34:41;;;;;;;14.75;6.33;;;;;;;8.12;31.87;102408.54;3578937;81;98730;-90
2022/03/11 11:39:47;;;;;;;14.30;6.37;;;;;;;8.20;31.23;102400.98;3595274;80;97837;-92
2022/03/11 11:44:47;;;;;;;14.27;5.77;;;;;;;8.25;31.10;102391.24;3565571;81;98075;-88
2022/03/11 11:49:55;;;;;;;22.87;8.83;;;;;;;8.30;31.52;102400.69;3579449;82;98592;-96
2022/03/11 11:55:19;;;;;;;19.87;6.42;;;;;;;8.39;31.86;102393.33;3566645;82;97876;-88
2022/03/11 12:00:36;;;;;;;16.15;5.40;;;;;;;8.45;30.35;102385.20;3564757;81;99097;-95
2022/03/11 12:05:48;;;;;;;22.90;5.60;;;;;;;8.38;31.81;102376.62;3581516;79;99082;-94
2022/03/11 12:10:51;;;;;;;13.10;5.80;;;;;;;8.42;32.13;102372.68;3557823;81;98649;-91
2022/03/11 12:15:52;;;;;;;12.15;5.47;;;;;;;8.42;31.64;102368.56;3597268;79;98633;-88
2022/03/11 12:20:53;;;;;;;11.50;4.40;;;;;;;8.20;30.98;102361.75;3539829;82;98395;-94
2022/03/11 12:26:01;;;;;;;12.20;4.60;;;;;;;8.00;30.64;102362.23;3563842;81;98468;-94
2022/03/11 12:31:13;;;;;;;10.40;4.42;;;;;;;7.86;30.91;102359.55;3570424;82;99078;-86
2022/03/11 12:36:19;;;;;;;9.45;3.98;;;;;;;7.65;30.91;102356.27;3576363;81;98682;-89
2022/03/11 12:41:28;;;;;;;12.82;4.28;;;;;;;7.55;30.36;102346.36;3550405;78;98577;-89
2022/03/11 12:46:35;;;;;;;10.93;3.95;;;;;;;7.53;30.48;102332.14;3567507;79;98785;-92
2022/03/11 12:51:41;;;;;;;9.85;3.62;;;;;;;7.55;31.58;102338.14;3577548;80;98644;-92
2022/03/11 12:56:44;;;;;;;11.77;4.37;;;;;;;7.51;31.32;102317.95;3583571;81;26621;-88
2022/03/11 13:01:50;;;;;;;15.07;4.93;;;;;;;7.49;31.70;102317.47;3556334;81;98575;-92
2022/03/11 13:06:49;;;;;;;8.37;3.57;;;;;;;7.43;30.86;102309.67;3569592;81;99119;-89
2022/03/11 13:11:50;;;;;;;15.97;5.03;;;;;;;7.53;32.07;102308.06;3555505;80;98464;-88
2022/03/11 13:16:52;;;;;;;11.67;4.50;;;;;;;7.44;29.97;102296.22;3568290;80;98675;-90
2022/03/11 13:21:55;;;;;;;11.20;4.00;;;;;;;7.32;30.75;102300.87;3559550;81;99247;-91
2022/03/11 13:27:18;;;;;;;13.37;4.07;;;;;;;7.33;31.36;102297.03;3571517;80;32947;-85
2022/03/11 13:32:24;;;;;;;23.73;9.85;;;;;;;7.27;30.64;102287.32;3553546;80;98534;-89
2022/03/11 13:37:25;;;;;;;12.35;5.40;;;;;;;7.15;31.17;102287.61;3576744;79;99162;-88
2022/03/11 13:42:29;;;;;;;15.87;6.13;;;;;;;7.15;32.07;102278.81;3546629;81;98681;-88
2022/03/11 13:47:30;;;;;;;18.87;7.40;;;;;;;7.18;31.80;102271.37;3544803;79;97774;-88
2022/03/11 13:52:41;;;;;;;14.70;5.57;;;;;;;7.19;31.87;102268.08;3503243;79;98789;-96
2022/03/11 13:57:42;;;;;;;17.05;7.50;;;;;;;7.14;32.10;102271.73;3478972;82;98666;-86
2022/03/11 14:02:43;;;;;;;20.47;6.53;;;;;;;7.08;31.13;102272.97;3471591;82;98247;-93
2022/03/11 14:07:48;;;;;;;12.67;5.27;;;;;;;6.91;31.70;102271.99;3533903;82;98882;-91
2022/03/11 14:13:00;;;;;;;20.43;6.80;;;;;;;6.89;31.91;102264.66;3506167;82;99059;-92
2022/03/11 14:18:02;;;;;;;18.05;5.35;;;;;;;6.88;32.38;102265.20;3507104;82;98703;-93
2022/03/11 14:23:03;;;;;;;12.68;5.33;;;;;;;6.79;32.52;102250.65;3511554;83;98604;-90
2022/03/11 14:28:07;;;;;;;14.60;6.42;;;;;;;6.67;31.98;102253.11;3506107;82;98724;-91
2022/03/11 14:33:08;;;;;;;21.68;6.87;;;;;;;6.64;33.00;102245.50;3506592;82;98838;-88
2022/03/11 14:38:09;;;;;;;17.17;6.30;;;;;;;6.58;32.69;102245.36;3533262;82;98512;-90
2022/03/11 14:43:10;;;;;;;18.12;6.40;;;;;;;6.53;32.83;102238.62;3505565;83;99155;-92
2022/03/11 14:48:11;;;;;;;14.07;6.13;;;;;;;6.40;33.00;102234.00;3513535;83;99250;-92
2022/03/11 14:53:13;;;;;;;15.90;6.47;;;;;;;6.34;33.52;102235.77;3510093;83;98960;-91
2022/03/11 14:58:14;;;;;;;13.40;5.07;;;;;;;6.23;33.88;102227.52;3522699;82;99161;-88
2022/03/11 15:03:15;;;;;;;14.70;5.72;;;;;;;6.16;34.52;102221.08;3596013;80;98061;-88
2022/03/11 15:08:16;;;;;;;17.03;5.83;;;;;;;6.01;32.71;102209.07;3609138;80;98464;-92
2022/03/11 15:13:17;;;;;;;12.68;5.83;;;;;;;5.84;32.55;102210.23;3547143;81;98504;-95
2022/03/11 15:18:18;;;;;;;16.20;6.27;;;;;;;5.77;33.42;102200.77;3613778;80;98758;-91
2022/03/11 15:23:19;;;;;;;17.90;7.57;;;;;;;5.70;33.21;102195.73;3609084;80;98671;-89
2022/03/11 15:28:20;;;;;;;20.63;7.17;;;;;;;5.59;33.76;102188.00;3609643;80;99012;-90
2022/03/11 15:33:22;;;;;;;18.80;6.70;;;;;;;5.51;33.11;102188.72;3584780;80;98738;-95
2022/03/11 15:38:23;;;;;;;18.27;7.17;;;;;;;5.40;33.70;102177.14;3577682;80;98422;-90
2022/03/11 15:43:23;;;;;;;18.50;5.83;;;;;;;5.31;34.19;102172.14;3584256;80;98861;-86
2022/03/11 15:48:24;;;;;;;15.85;6.17;;;;;;;5.21;34.00;102165.48;3586728;80;98688;-89
2022/03/11 15:53:25;;;;;;;19.30;7.23;;;;;;;5.15;33.91;102165.86;3574395;80;98556;-93
2022/03/11 15:58:26;;;;;;;17.50;6.90;;;;;;;5.00;33.00;102164.73;3634554;80;98726;-89
2022/03/11 16:03:27;;;;;;;21.30;7.30;;;;;;;4.86;34.16;102165.25;3601591;80;98139;-90
2022/03/11 16:08:28;;;;;;;16.30;6.40;;;;;;;4.75;34.67;102160.49;3585743;81;98815;-90
2022/03/11 16:13:38;;;;;;;19.73;7.45;;;;;;;4.70;34.40;102161.93;3487367;80;98505;-79
2022/03/11 16:18:39;;;;;;;18.95;8.38;;;;;;;4.62;34.99;102161.25;3643846;78;98646;-80
2022/03/11 16:23:41;;;;;;;14.90;7.10;;;;;;;4.47;34.45;102160.09;3581523;78;99250;-80
2022/03/11 16:28:42;;;;;;;34.78;15.50;;;;;;;4.38;34.87;102158.33;3566405;80;98680;-80
2022/03/11 16:33:43;;;;;;;35.93;16.97;;;;;;;4.26;35.00;102163.41;3558042;80;99105;-80
2022/03/11 16:38:44;;;;;;;26.10;11.43;;;;;;;4.18;35.32;102173.58;3575882;81;25800;-79
2022/03/11 16:43:45;;;;;;;31.27;14.90;;;;;;;4.07;35.59;102162.02;3554802;80;98676;-79
2022/03/11 16:48:46;;;;;;;21.30;9.83;;;;;;;3.94;35.85;102166.78;3547527;81;98887;-80
2022/03/11 16:53:47;;;;;;;21.33;8.13;;;;;;;3.82;35.71;102165.59;3535563;80;99041;-81
2022/03/11 16:58:48;;;;;;;20.00;8.40;;;;;;;3.66;35.82;102172.31;3453998;84;98752;-79
2022/03/11 17:03:50;;;;;;;20.57;8.47;;;;;;;3.56;35.99;102168.33;3511401;82;98617;-80
2022/03/11 17:08:52;;;;;;;24.20;9.13;;;;;;;3.46;36.75;102164.34;3455719;84;25922;-78
2022/03/11 17:13:53;;;;;;;21.13;8.20;;;;;;;3.34;36.76;102168.00;3500133;81;120690;-79
2022/03/11 17:18:54;;;;;;;25.50;9.27;;;;;;;3.19;36.18;102168.14;3606894;79;98662;-79
2022/03/11 17:23:56;;;;;;;21.42;8.68;;;;;;;3.03;35.99;102180.24;3597279;79;98553;-78
2022/03/11 17:28:57;;;;;;;23.30;9.30;;;;;;;2.89;35.89;102182.80;3611274;80;98682;-79
2022/03/11 17:34:01;;;;;;;24.90;9.57;;;;;;;2.74;35.88;102186.97;3611951;78;99083;-82
2022/03/11 17:39:02;;;;;;;27.37;10.60;;;;;;;2.62;36.49;102187.88;3596009;80;26336;-81
2022/03/11 17:44:04;;;;;;;25.50;9.43;;;;;;;2.51;36.33;102186.88;3569386;81;99183;-81
2022/03/11 17:49:05;;;;;;;26.93;10.50;;;;;;;2.42;37.63;102186.66;3598698;79;98572;-81
2022/03/11 17:54:08;;;;;;;31.33;12.33;;;;;;;2.31;38.18;102188.33;3585696;78;98869;-81
2022/03/11 17:59:09;;;;;;;35.08;14.63;;;;;;;2.16;38.03;102177.00;3591381;79;98902;-82
2022/03/11 18:04:10;;;;;;;40.50;15.48;;;;;;;2.02;38.53;102175.16;3592777;79;99301;-82
2022/03/11 18:09:12;;;;;;;37.78;15.00;;;;;;;1.86;39.24;102187.96;3617630;80;31834;-82
2022/03/11 18:14:14;;;;;;;40.80;16.00;;;;;;;1.75;39.82;102181.50;3614082;78;98720;-82
2022/03/11 18:19:15;;;;;;;30.08;12.80;;;;;;;1.62;40.26;102172.56;3660772;77;98624;-82
2022/03/11 18:24:17;;;;;;;33.63;16.30;;;;;;;1.49;40.69;102171.79;3638451;78;98795;-81
2022/03/11 18:29:20;;;;;;;35.53;16.20;;;;;;;1.39;41.12;102170.45;3623904;79;99353;-81
2022/03/11 18:34:22;;;;;;;36.10;13.88;;;;;;;1.28;41.19;102172.37;3666008;78;98856;-82
2022/03/11 18:39:23;;;;;;;38.20;16.27;;;;;;;1.19;41.33;102173.17;3646899;79;30620;-83
2022/03/11 18:44:24;;;;;;;37.10;14.43;;;;;;;1.10;41.39;102172.11;3639559;78;98720;-82
2022/03/11 18:49:27;;;;;;;38.50;14.43;;;;;;;1.03;41.56;102172.91;3638869;79;99080;-82
2022/03/11 18:54:29;;;;;;;35.17;14.17;;;;;;;0.93;41.69;102165.59;3634307;78;98819;-82
2022/03/11 18:59:30;;;;;;;39.80;16.32;;;;;;;0.87;41.71;102160.43;3647989;79;99264;-82
2022/03/11 19:04:30;;;;;;;32.60;13.40;;;;;;;0.81;41.81;102156.92;3620279;78;99256;-82
2022/03/11 19:09:32;;;;;;;31.90;16.27;;;;;;;0.78;41.69;102160.16;3665580;79;26508;-82
2022/03/11 19:14:33;;;;;;;35.17;13.83;;;;;;;0.74;41.72;102153.67;3648744;79;98870;-84
2022/03/11 19:19:34;;;;;;;32.97;11.83;;;;;;;0.68;41.58;102150.69;3576363;79;99080;-82
2022/03/11 19:24:35;;;;;;;24.12;10.05;;;;;;;0.68;42.19;102141.20;3600806;79;99387;-83
2022/03/11 19:29:36;;;;;;;27.80;10.10;;;;;;;0.69;41.77;102137.41;3612344;79;98909;-80
2022/03/11 19:34:37;;;;;;;27.80;9.73;;;;;;;0.60;41.70;102122.76;3633919;79;99240;-83
2022/03/11 19:39:39;;;;;;;30.10;10.33;;;;;;;0.60;41.70;102122.76;3653925;79;98730;-82
2022/03/11 19:44:41;;;;;;;24.40;9.80;;;;;;;0.72;41.70;102125.22;3583443;80;98317;-82
2022/03/11 19:49:42;;;;;;;24.87;10.60;;;;;;;0.72;41.50;102140.91;3634330;77;98536;-83
2022/03/11 19:54:44;;;;;;;22.73;9.08;;;;;;;0.76;41.33;102131.70;3654391;79;98221;-84
2022/03/11 19:59:45;;;;;;;31.00;13.20;;;;;;;0.75;41.55;102137.68;3620401;79;98622;-83
2022/03/11 20:04:47;;;;;;;34.00;12.87;;;;;;;0.73;41.63;102141.18;3603532;79;99233;-81
2022/03/11 20:09:48;;;;;;;42.37;15.20;;;;;;;0.71;41.57;102138.50;3650503;79;99297;-82
2022/03/11 20:14:49;;;;;;;30.90;11.90;;;;;;;0.69;41.31;102143.36;3626113;79;98332;-83
2022/03/11 20:19:50;;;;;;;30.40;12.17;;;;;;;0.68;41.53;102139.85;3634307;79;98657;-80
2022/03/11 20:24:52;;;;;;;29.97;12.23;;;;;;;0.65;41.85;102152.57;3609325;79;98061;-81
2022/03/11 20:29:54;;;;;;;31.30;12.67;;;;;;;0.63;41.98;102139.84;3667247;79;98839;-80
2022/03/11 20:34:55;;;;;;;29.47;11.63;;;;;;;0.59;41.74;102137.39;3641466;79;99350;-82
2022/03/11 20:39:56;;;;;;;34.43;13.10;;;;;;;0.55;41.75;102134.95;3649280;79;99301;-83
2022/03/11 20:44:57;;;;;;;30.03;11.50;;;;;;;0.51;42.40;102128.98;3632330;79;25774;-81
2022/03/11 20:49:59;;;;;;;29.37;11.67;;;;;;;0.46;42.31;102128.45;3617277;79;99047;-80
2022/03/11 20:55:00;;;;;;;32.27;12.63;;;;;;;0.43;42.42;102120.02;3648181;79;98689;-81
2022/03/11 21:00:01;;;;;;;50.60;21.83;;;;;;;0.36;42.93;102123.54;3618389;79;98842;-82
2022/03/11 21:05:06;;;;;;;43.25;22.82;;;;;;;0.29;42.85;102117.02;3645564;79;98895;-79
2022/03/11 21:10:12;;;;;;;33.42;16.23;;;;;;;0.25;43.62;102109.70;3613104;79;99222;-80
2022/03/11 21:15:15;;;;;;;29.65;11.25;;;;;;;0.20;43.55;102113.23;3660018;79;27398;-81
2022/03/11 21:20:18;;;;;;;34.60;13.90;;;;;;;0.11;43.34;102121.59;3603036;80;98793;-81
2022/03/11 21:25:20;;;;;;;26.57;10.60;;;;;;;0.07;43.71;102130.52;3575053;81;97922;-82
2022/03/11 21:30:25;;;;;;;32.50;13.23;;;;;;;0.02;44.11;102130.50;3568255;78;98917;-81
2022/03/11 21:35:24;;;;;;;25.27;11.30;;;;;;;-0.02;43.81;102130.75;3573054;80;98933;-83
2022/03/11 21:40:28;;;;;;;25.48;10.93;;;;;;;-0.07;43.99;102129.94;3568259;81;98976;-82
2022/03/11 21:45:29;;;;;;;24.67;9.50;;;;;;;-0.13;44.00;102135.84;3577998;81;31616;-81
2022/03/11 21:50:32;;;;;;;27.77;11.10;;;;;;;-0.17;44.11;102143.42;3577317;78;98655;-81
2022/03/11 21:55:33;;;;;;;27.60;9.87;;;;;;;-0.21;44.63;102130.41;3571574;79;98891;-80
2022/03/11 22:00:37;;;;;;;24.27;9.10;;;;;;;-0.23;44.07;102133.09;3597573;79;98792;-83
2022/03/11 22:05:37;;;;;;;22.55;9.50;;;;;;;-0.27;44.36;102128.76;3582901;80;98771;-81
2022/03/11 22:10:38;;;;;;;20.97;8.47;;;;;;;-0.31;44.35;102124.94;3586086;80;98802;-82
2022/03/11 22:15:39;;;;;;;29.67;10.43;;;;;;;-0.34;44.40;102119.25;3573565;81;99311;-81
2022/03/11 22:20:40;;;;;;;26.13;10.03;;;;;;;-0.37;44.36;102120.32;3572061;82;99124;-81
2022/03/11 22:25:41;;;;;;;25.70;10.97;;;;;;;-0.42;44.67;102123.83;3569476;80;99253;-81
2022/03/11 22:30:43;;;;;;;27.87;10.57;;;;;;;-0.47;44.83;102119.19;3567819;80;99108;-81
2022/03/11 22:35:44;;;;;;;24.33;10.20;;;;;;;-0.52;44.87;102119.71;3569573;80;99100;-80
2022/03/11 22:40:45;;;;;;;23.65;9.78;;;;;;;-0.54;44.85;102129.16;3558283;81;99255;-81
2022/03/11 22:45:49;;;;;;;28.33;11.90;;;;;;;-0.58;45.10;102132.94;3566328;81;99180;-80
2022/03/11 22:50:55;;;;;;;25.87;10.10;;;;;;;-0.62;45.26;102126.41;3567685;81;99019;-80
2022/03/11 22:55:54;;;;;;;27.62;12.43;;;;;;;-0.65;45.44;102123.42;3565651;81;98810;-80
2022/03/11 23:00:55;;;;;;;28.87;10.63;;;;;;;-0.71;45.53;102121.21;3574048;81;99045;-81
2022/03/11 23:11:10;;;;;;;28.67;11.07;;;;;;;-0.81;45.79;102118.99;3506130;78;99006;-81
2022/03/11 23:16:12;;;;;;;31.85;13.13;;;;;;;-0.85;45.99;102128.69;3579954;79;99067;-80